createdAt,value
2023-03-29T00:00:38.364Z,79.30
2023-03-29T00:03:06.834Z,79.30
2023-03-29T00:05:35.301Z,79.70
2023-03-29T00:08:04.492Z,79.00
2023-03-29T00:10:33.791Z,79.40
2023-03-29T00:13:02.599Z,79.40
2023-03-29T00:15:29.992Z,79.40
2023-03-29T00:17:58.744Z,79.10
2023-03-29T00:20:26.228Z,78.70
2023-03-29T00:22:53.480Z,79.00
2023-03-29T00:25:21.197Z,79.10
2023-03-29T00:27:48.564Z,78.90
2023-03-29T00:30:16.716Z,78.90
2023-03-29T00:32:44.855Z,78.80
2023-03-29T00:35:12.408Z,79.00
2023-03-29T00:37:40.103Z,79.50
2023-03-29T00:40:10.688Z,79.80
2023-03-29T00:42:39.258Z,79.80
2023-03-29T00:45:07.216Z,80.00
2023-03-29T00:47:42.570Z,79.60
2023-03-29T00:50:22.626Z,79.30
2023-03-29T00:52:59.506Z,79.50
2023-03-29T00:55:30.005Z,79.70
2023-03-29T00:57:59.370Z,79.80
2023-03-29T01:01:00.195Z,79.80
2023-03-29T01:03:34.172Z,80.40
2023-03-29T01:06:06.652Z,80.40
2023-03-29T01:08:40.472Z,80.80
2023-03-29T01:11:46.544Z,80.70
2023-03-29T01:14:28.594Z,80.60
2023-03-29T01:16:56.593Z,80.90
2023-03-29T01:19:30.500Z,80.60
2023-03-29T01:22:39.101Z,80.40
2023-03-29T01:25:13.314Z,80.10
2023-03-29T01:27:59.547Z,79.70
2023-03-29T01:30:34.221Z,80.20
2023-03-29T01:33:08.921Z,80.90
2023-03-29T01:35:51.294Z,81.40
2023-03-29T01:38:25.995Z,81.00
2023-03-29T01:40:53.710Z,81.20
2023-03-29T01:43:30.636Z,81.00
2023-03-29T01:46:04.782Z,80.90
2023-03-29T01:48:47.143Z,80.40
2023-03-29T01:51:29.639Z,80.10
2023-03-29T01:54:09.926Z,80.00
2023-03-29T01:56:41.909Z,80.10
2023-03-29T01:59:13.544Z,80.30
2023-03-29T02:01:49.452Z,80.60
2023-03-29T02:04:34.887Z,80.60
2023-03-29T02:07:04.958Z,80.70
2023-03-29T02:09:34.959Z,80.50
2023-03-29T02:12:06.741Z,79.50
2023-03-29T02:14:34.066Z,79.90
2023-03-29T02:17:26.653Z,79.70
2023-03-29T02:20:14.818Z,80.00
2023-03-29T02:22:49.247Z,80.50
2023-03-29T02:25:17.883Z,80.80
2023-03-29T02:27:46.306Z,81.00
2023-03-29T02:30:17.410Z,81.20
2023-03-29T02:32:59.755Z,81.40
2023-03-29T02:35:50.497Z,80.90
2023-03-29T02:38:19.047Z,80.50
2023-03-29T02:40:47.479Z,80.30
2023-03-29T02:43:17.622Z,80.00
2023-03-29T02:45:48.565Z,79.60
2023-03-29T02:48:18.855Z,79.90
2023-03-29T02:50:51.302Z,80.00
2023-03-29T02:53:24.654Z,79.90
2023-03-29T02:55:53.057Z,80.20
2023-03-29T02:58:28.890Z,80.30
2023-03-29T03:01:00.500Z,80.30
2023-03-29T03:03:28.151Z,80.00
2023-03-29T03:05:56.834Z,80.20
2023-03-29T03:08:24.258Z,80.20
2023-03-29T03:10:54.286Z,80.50
2023-03-29T03:13:23.222Z,80.60
2023-03-29T03:15:55.275Z,80.50
2023-03-29T03:18:23.570Z,80.40
2023-03-29T03:20:59.597Z,79.70
2023-03-29T03:23:27.639Z,79.70
2023-03-29T03:25:55.922Z,79.80
2023-03-29T03:28:24.458Z,80.00
2023-03-29T03:30:53.982Z,79.90
2023-03-29T03:33:46.432Z,79.90
2023-03-29T03:36:36.944Z,81.10
2023-03-29T03:39:07.290Z,81.30
2023-03-29T03:41:36.726Z,81.40
2023-03-29T03:44:04.114Z,81.40
2023-03-29T03:46:32.459Z,81.30
2023-03-29T03:49:00.974Z,80.90
2023-03-29T03:51:34.671Z,80.70
2023-03-29T03:54:02.296Z,80.50
2023-03-29T03:56:35.834Z,81.10
2023-03-29T03:59:13.882Z,81.70
2023-03-29T04:02:04.216Z,81.80
2023-03-29T04:04:32.609Z,81.60
2023-03-29T04:07:14.496Z,81.60
2023-03-29T04:09:41.905Z,81.30
2023-03-29T04:12:28.473Z,81.40
2023-03-29T04:14:56.181Z,81.20
2023-03-29T04:17:25.459Z,80.90
2023-03-29T04:20:19.124Z,80.50
2023-03-29T04:22:46.509Z,80.60
2023-03-29T04:25:14.542Z,81.00
2023-03-29T04:27:48.325Z,81.50
2023-03-29T04:30:35.130Z,81.70
2023-03-29T04:33:22.041Z,81.60
2023-03-29T04:35:57.166Z,81.30
2023-03-29T04:38:24.660Z,81.30
2023-03-29T04:40:55.268Z,81.00
2023-03-29T04:43:39.006Z,80.80
2023-03-29T04:46:18.857Z,80.40
2023-03-29T04:49:01.459Z,80.60
2023-03-29T04:51:38.135Z,80.80
2023-03-29T04:54:06.081Z,81.60
2023-03-29T04:56:47.445Z,82.00
2023-03-29T04:59:36.694Z,82.00
2023-03-29T05:02:13.882Z,81.50
2023-03-29T05:04:46.175Z,81.60
2023-03-29T05:07:18.148Z,81.40
2023-03-29T05:09:47.500Z,80.60
2023-03-29T05:12:15.502Z,80.70
2023-03-29T05:14:54.013Z,81.10
2023-03-29T05:17:26.902Z,81.10
2023-03-29T05:19:57.024Z,81.00
2023-03-29T05:22:26.129Z,81.00
2023-03-29T05:24:54.198Z,80.70
2023-03-29T05:27:23.071Z,81.00
2023-03-29T05:30:01.884Z,80.90
2023-03-29T05:32:49.755Z,81.00
2023-03-29T05:35:25.215Z,81.20
2023-03-29T05:37:55.382Z,80.90
2023-03-29T05:40:23.123Z,81.00
2023-03-29T05:43:13.686Z,81.10
2023-03-29T05:45:49.403Z,81.30
2023-03-29T05:48:17.416Z,81.10
2023-03-29T05:50:53.694Z,81.30
2023-03-29T05:53:24.215Z,80.50
2023-03-29T05:55:52.589Z,80.50
2023-03-29T05:58:24.418Z,80.80
2023-03-29T06:00:55.092Z,80.20
2023-03-29T06:03:43.373Z,80.80
2023-03-29T06:06:16.467Z,80.10
2023-03-29T06:08:45.254Z,79.60
2023-03-29T06:11:24.490Z,79.70
2023-03-29T06:14:10.687Z,80.30
2023-03-29T06:16:47.235Z,80.10
2023-03-29T06:19:17.614Z,80.20
2023-03-29T06:21:46.621Z,80.00
2023-03-29T06:24:19.299Z,79.90
2023-03-29T06:26:54.092Z,79.40
2023-03-29T06:29:22.486Z,79.10
2023-03-29T06:31:52.574Z,78.70
2023-03-29T06:34:39.111Z,77.90
2023-03-29T06:37:25.786Z,77.00
2023-03-29T06:40:11.888Z,77.10
2023-03-29T06:42:45.562Z,77.00
2023-03-29T06:45:42.985Z,76.40
2023-03-29T06:48:27.135Z,76.90
2023-03-29T06:50:55.187Z,75.30
2023-03-29T06:53:26.437Z,76.10
2023-03-29T06:56:00.054Z,76.10
2023-03-29T06:58:45.217Z,74.60
2023-03-29T07:01:54.317Z,74.90
2023-03-29T07:04:37.749Z,74.30
2023-03-29T07:07:20.713Z,72.30
2023-03-29T07:09:55.740Z,72.80
2023-03-29T07:13:02.392Z,72.60
2023-03-29T07:15:37.878Z,72.70
2023-03-29T07:18:35.642Z,72.60
2023-03-29T07:21:04.864Z,72.50
2023-03-29T07:23:33.011Z,72.40
2023-03-29T07:26:01.502Z,72.90
2023-03-29T07:28:30.086Z,72.40
2023-03-29T07:31:12.104Z,72.00
2023-03-29T07:33:46.630Z,72.30
2023-03-29T07:36:15.850Z,72.50
2023-03-29T07:38:43.245Z,72.20
2023-03-29T07:41:16.381Z,71.30
2023-03-29T07:43:47.189Z,72.20
2023-03-29T07:46:19.627Z,72.10
2023-03-29T07:48:47.714Z,72.40
2023-03-29T07:51:16.769Z,73.10
2023-03-29T07:54:00.902Z,71.50
2023-03-29T07:56:40.525Z,71.30
2023-03-29T07:59:27.536Z,70.90
2023-03-29T08:02:05.581Z,70.00
2023-03-29T08:04:40.420Z,69.70
2023-03-29T08:07:18.990Z,70.20
2023-03-29T08:10:01.772Z,67.30
2023-03-29T08:12:55.156Z,69.20
2023-03-29T08:15:40.774Z,69.00
2023-03-29T08:18:20.580Z,68.40
2023-03-29T08:20:48.759Z,68.30
2023-03-29T08:23:16.063Z,68.00
2023-03-29T08:25:57.740Z,67.10
2023-03-29T08:28:26.782Z,66.60
2023-03-29T08:30:58.856Z,67.40
2023-03-29T08:33:27.097Z,67.10
2023-03-29T08:36:05.304Z,65.50
2023-03-29T08:38:36.837Z,67.00
2023-03-29T08:41:27.731Z,67.00
2023-03-29T08:44:02.046Z,65.50
2023-03-29T08:47:13.013Z,65.90
2023-03-29T08:49:48.877Z,65.80
2023-03-29T08:52:35.818Z,65.40
2023-03-29T08:55:38.463Z,66.80
2023-03-29T08:58:37.354Z,67.30
2023-03-29T09:01:09.469Z,67.50
2023-03-29T09:03:54.529Z,67.50
2023-03-29T09:06:35.357Z,67.70
2023-03-29T09:09:18.842Z,68.00
2023-03-29T09:12:02.073Z,66.70
2023-03-29T09:15:02.305Z,67.50
2023-03-29T09:18:22.092Z,68.40
2023-03-29T09:21:04.692Z,66.60
2023-03-29T09:23:52.710Z,66.70
2023-03-29T09:26:45.977Z,67.30
2023-03-29T09:30:10.126Z,66.20
2023-03-29T09:32:58.109Z,66.80
2023-03-29T09:35:48.274Z,66.50
2023-03-29T09:38:18.660Z,66.10
2023-03-29T09:40:58.907Z,64.50
2023-03-29T09:43:33.498Z,66.20
2023-03-29T09:46:07.309Z,66.20
2023-03-29T09:48:38.048Z,65.70
2023-03-29T09:51:09.317Z,65.20
2023-03-29T09:53:39.065Z,66.10
2023-03-29T09:56:19.231Z,64.20
2023-03-29T09:58:50.406Z,63.90
2023-03-29T10:01:19.700Z,64.20
2023-03-29T10:03:53.623Z,65.40
2023-03-29T10:06:25.651Z,64.00
2023-03-29T10:09:02.340Z,64.30
2023-03-29T10:11:39.497Z,61.40
2023-03-29T10:14:36.298Z,62.50
2023-03-29T10:17:10.989Z,63.40
2023-03-29T10:19:47.105Z,63.20
2023-03-29T10:22:23.352Z,64.30
2023-03-29T10:24:53.170Z,63.80
2023-03-29T10:27:25.560Z,63.50
2023-03-29T10:29:54.976Z,64.90
2023-03-29T10:32:23.356Z,64.00
2023-03-29T10:34:52.579Z,64.20
2023-03-29T10:37:21.322Z,62.90
2023-03-29T10:39:49.889Z,63.30
2023-03-29T10:42:20.046Z,64.50
2023-03-29T10:44:59.149Z,63.70
2023-03-29T10:47:31.737Z,64.20
2023-03-29T10:49:59.468Z,64.30
2023-03-29T10:52:26.795Z,64.30
2023-03-29T10:54:56.659Z,64.40
2023-03-29T10:57:41.496Z,63.70
2023-03-29T11:00:43.358Z,64.10
2023-03-29T11:03:17.067Z,64.40
2023-03-29T11:06:00.694Z,63.50
2023-03-29T11:08:52.138Z,62.50
2023-03-29T11:11:34.997Z,63.90
2023-03-29T11:14:52.983Z,63.10
2023-03-29T11:17:53.318Z,63.90
2023-03-29T11:20:57.032Z,64.80
2023-03-29T11:24:05.472Z,63.40
2023-03-29T11:26:59.169Z,62.70
2023-03-29T11:29:39.348Z,64.10
2023-03-29T11:32:22.645Z,63.50
2023-03-29T11:35:11.370Z,63.70
2023-03-29T11:37:46.396Z,64.80
2023-03-29T11:40:28.958Z,63.70
2023-03-29T11:43:00.607Z,63.90
2023-03-29T11:45:41.254Z,65.90
2023-03-29T11:48:39.481Z,65.30
2023-03-29T11:51:32.431Z,65.50
2023-03-29T11:54:15.813Z,64.50
2023-03-29T11:56:58.207Z,63.70
2023-03-29T11:59:37.000Z,65.80
2023-03-29T12:02:33.165Z,65.20
2023-03-29T12:05:08.969Z,64.70
2023-03-29T12:07:40.492Z,63.90
2023-03-29T12:10:24.012Z,65.10
2023-03-29T12:13:02.592Z,64.90
2023-03-29T12:15:45.981Z,65.60
2023-03-29T12:18:36.522Z,63.40
2023-03-29T12:21:09.152Z,63.80
2023-03-29T12:23:37.801Z,63.00
2023-03-29T12:26:30.432Z,64.10
2023-03-29T12:29:09.684Z,64.60
2023-03-29T12:31:55.700Z,65.50
2023-03-29T12:34:43.624Z,65.60
2023-03-29T12:37:38.442Z,64.40
2023-03-29T12:40:44.319Z,64.90
2023-03-29T12:43:38.511Z,65.10
2023-03-29T12:46:36.623Z,65.40
2023-03-29T12:49:13.734Z,66.70
2023-03-29T12:51:44.163Z,65.70
2023-03-29T12:54:22.208Z,65.80
2023-03-29T12:56:54.131Z,64.90
2023-03-29T12:59:48.170Z,65.00
2023-03-29T13:02:16.329Z,65.10
2023-03-29T13:04:55.428Z,64.70
2023-03-29T13:07:23.364Z,66.00
2023-03-29T13:09:52.143Z,66.00
2023-03-29T13:12:38.606Z,65.00
2023-03-29T13:15:25.479Z,66.60
2023-03-29T13:18:08.199Z,64.70
2023-03-29T13:20:42.203Z,65.10
2023-03-29T13:23:50.949Z,64.00
2023-03-29T13:27:01.764Z,64.10
2023-03-29T13:29:48.304Z,63.80
2023-03-29T13:32:48.651Z,64.50
2023-03-29T13:35:38.523Z,65.20
2023-03-29T13:38:49.101Z,65.80
2023-03-29T13:42:04.571Z,65.00
2023-03-29T13:44:52.956Z,65.00
2023-03-29T13:48:19.754Z,66.50
2023-03-29T13:51:50.612Z,65.50
2023-03-29T13:54:50.343Z,65.40
2023-03-29T13:57:21.779Z,65.50
2023-03-29T14:00:00.724Z,65.50
2023-03-29T14:02:33.690Z,65.40
2023-03-29T14:05:05.761Z,66.50
2023-03-29T14:07:56.259Z,66.80
2023-03-29T14:10:36.055Z,68.20
2023-03-29T14:13:04.784Z,68.80
2023-03-29T14:15:46.334Z,68.30
2023-03-29T14:22:38.673Z,70.10
2023-03-29T14:25:18.218Z,69.60
2023-03-29T14:27:46.464Z,69.10
2023-03-29T14:30:30.258Z,69.30
2023-03-29T14:32:58.481Z,69.10
2023-03-29T14:35:32.409Z,69.30
2023-03-29T14:38:00.741Z,70.00
2023-03-29T14:40:30.294Z,70.10
2023-03-29T14:43:06.838Z,69.40
2023-03-29T14:45:36.275Z,69.30
2023-03-29T14:48:04.894Z,70.20
2023-03-29T14:50:32.542Z,70.80
2023-03-29T14:53:01.592Z,70.60
2023-03-29T14:55:29.501Z,70.30
2023-03-29T14:57:57.597Z,70.00
2023-03-29T15:00:36.115Z,70.30
2023-03-29T15:03:03.557Z,69.70
2023-03-29T15:05:41.602Z,70.00
2023-03-29T15:08:16.001Z,70.30
2023-03-29T15:10:45.071Z,69.40
2023-03-29T15:13:24.845Z,69.90
2023-03-29T15:16:00.588Z,70.10
2023-03-29T15:18:35.245Z,69.50
2023-03-29T15:21:03.184Z,69.50
2023-03-29T15:23:38.731Z,69.10
2023-03-29T15:26:22.963Z,69.40
2023-03-29T15:29:07.295Z,69.50
2023-03-29T15:31:40.274Z,70.10
2023-03-29T15:34:25.644Z,69.50
2023-03-29T15:36:54.252Z,70.00
2023-03-29T15:39:22.178Z,68.50
2023-03-29T15:41:51.407Z,69.10
2023-03-29T15:44:26.604Z,69.10
2023-03-29T15:46:55.743Z,69.20
2023-03-29T15:49:23.523Z,68.40
2023-03-29T15:51:52.878Z,67.20
2023-03-29T15:54:24.871Z,65.70
2023-03-29T15:57:05.609Z,66.20
2023-03-29T15:59:33.672Z,66.00
2023-03-29T16:02:01.277Z,64.60
2023-03-29T16:04:28.775Z,65.00
2023-03-29T16:07:07.078Z,64.40
2023-03-29T16:09:34.772Z,65.60
2023-03-29T16:12:02.260Z,67.10
2023-03-29T16:14:31.687Z,65.40
2023-03-29T16:17:00.407Z,63.80
2023-03-29T16:19:29.322Z,65.50
2023-03-29T16:21:58.156Z,63.30
2023-03-29T16:24:27.988Z,64.70
2023-03-29T16:26:56.614Z,65.00
2023-03-29T16:29:24.970Z,68.10
2023-03-29T16:31:53.077Z,70.10
2023-03-29T16:34:23.042Z,69.70
2023-03-29T16:36:51.347Z,70.60
2023-03-29T16:39:19.361Z,71.80
2023-03-29T16:41:49.154Z,72.20
2023-03-29T16:44:21.666Z,72.90
2023-03-29T16:46:50.590Z,73.30
2023-03-29T16:49:18.343Z,73.60
2023-03-29T16:51:48.703Z,73.50
2023-03-29T16:54:20.173Z,74.00
2023-03-29T16:56:47.421Z,73.60
2023-03-29T16:59:15.592Z,73.30
2023-03-29T17:01:43.573Z,73.70
2023-03-29T17:04:11.698Z,74.30
2023-03-29T17:06:39.350Z,74.10
2023-03-29T17:09:07.591Z,74.50
2023-03-29T17:11:35.411Z,74.30
2023-03-29T17:14:03.356Z,74.40
2023-03-29T17:16:30.923Z,74.30
2023-03-29T17:19:02.132Z,74.40
2023-03-29T17:21:29.884Z,75.10
2023-03-29T17:23:58.217Z,75.50
2023-03-29T17:26:26.262Z,75.70
2023-03-29T17:28:53.556Z,76.10
2023-03-29T17:31:21.564Z,76.10
2023-03-29T17:33:52.141Z,75.70
2023-03-29T17:36:24.260Z,76.10
2023-03-29T17:38:51.860Z,76.10
2023-03-29T17:41:22.031Z,76.30
2023-03-29T17:43:51.209Z,76.50
2023-03-29T17:46:22.837Z,76.30
2023-03-29T17:48:51.354Z,76.00
2023-03-29T17:51:19.983Z,75.70
2023-03-29T17:53:47.656Z,75.90
2023-03-29T17:56:15.468Z,75.30
2023-03-29T17:58:42.772Z,75.50
2023-03-29T18:01:11.770Z,74.50
2023-03-29T18:03:39.719Z,74.70
2023-03-29T18:06:07.334Z,75.10
2023-03-29T18:08:35.629Z,75.10
2023-03-29T18:11:08.591Z,75.40
2023-03-29T18:13:36.450Z,75.10
2023-03-29T18:16:04.492Z,75.10
2023-03-29T18:18:32.983Z,75.40
2023-03-29T18:21:17.563Z,76.00
2023-03-29T18:24:06.244Z,76.10
2023-03-29T18:27:15.886Z,76.60
2023-03-29T18:30:21.584Z,76.30
2023-03-29T18:33:13.873Z,76.70
2023-03-29T18:35:50.572Z,76.80
2023-03-29T18:38:20.556Z,77.10
2023-03-29T18:40:48.534Z,76.90
2023-03-29T18:43:16.859Z,77.00
2023-03-29T18:45:47.365Z,77.30
2023-03-29T18:48:16.108Z,77.20
2023-03-29T18:50:47.133Z,77.50
2023-03-29T18:53:16.671Z,77.40
2023-03-29T18:55:44.700Z,78.20
2023-03-29T18:58:13.888Z,77.80
2023-03-29T19:00:45.222Z,77.80
2023-03-29T19:03:12.728Z,78.60
2023-03-29T19:05:41.178Z,77.60
2023-03-29T19:08:09.258Z,77.60
2023-03-29T19:10:38.201Z,78.00
2023-03-29T19:13:06.320Z,78.30
2023-03-29T19:15:38.043Z,78.30
2023-03-29T19:18:08.239Z,78.00
2023-03-29T19:20:36.788Z,78.70
2023-03-29T19:23:04.803Z,78.80
2023-03-29T19:25:32.265Z,79.10
2023-03-29T19:28:00.340Z,79.20
2023-03-29T19:30:30.909Z,79.00
2023-03-29T19:32:58.894Z,79.00
2023-03-29T19:35:26.528Z,79.10
2023-03-29T19:37:53.992Z,78.60
2023-03-29T19:40:21.366Z,78.50
2023-03-29T19:42:48.834Z,79.00
2023-03-29T19:45:17.403Z,78.60
2023-03-29T19:47:47.634Z,79.00
2023-03-29T19:50:15.293Z,79.20
2023-03-29T19:52:43.210Z,78.90
2023-03-29T19:55:10.806Z,79.40
2023-03-29T19:57:38.922Z,79.40
2023-03-29T20:00:08.211Z,79.20
2023-03-29T20:02:40.086Z,79.40
2023-03-29T20:05:09.256Z,79.50
2023-03-29T20:07:36.877Z,79.70
2023-03-29T20:10:06.649Z,79.80
2023-03-29T20:12:34.067Z,79.90
2023-03-29T20:15:01.350Z,79.70
2023-03-29T20:17:28.866Z,79.80
2023-03-29T20:19:56.344Z,79.60
2023-03-29T20:22:26.231Z,79.50
2023-03-29T20:24:53.643Z,79.60
2023-03-29T20:27:21.643Z,79.30
2023-03-29T20:29:49.403Z,79.30
2023-03-29T20:32:17.198Z,79.30
2023-03-29T20:34:44.726Z,79.20
2023-03-29T20:37:13.022Z,78.90
2023-03-29T20:39:41.460Z,78.80
2023-03-29T20:42:08.763Z,79.00
2023-03-29T20:44:36.358Z,78.70
2023-03-29T20:47:05.196Z,78.80
2023-03-29T20:49:39.573Z,78.80
2023-03-29T20:52:17.827Z,78.70
2023-03-29T20:54:46.066Z,78.70
2023-03-29T20:57:16.452Z,78.70
2023-03-29T20:59:44.926Z,79.00
2023-03-29T21:02:21.748Z,78.70
2023-03-29T21:04:51.995Z,78.90
2023-03-29T21:07:21.606Z,78.90
2023-03-29T21:09:50.065Z,78.80
2023-03-29T21:12:17.825Z,79.60
2023-03-29T21:14:45.148Z,79.80
2023-03-29T21:17:12.913Z,79.80
2023-03-29T21:19:40.687Z,79.60
2023-03-29T21:22:08.110Z,79.80
2023-03-29T21:24:36.816Z,79.60
2023-03-29T21:27:04.674Z,79.80
2023-03-29T21:29:32.178Z,79.70
2023-03-29T21:31:59.658Z,79.20
2023-03-29T21:34:27.172Z,79.50
2023-03-29T21:36:54.604Z,79.40
2023-03-29T21:39:22.548Z,80.20
2023-03-29T21:41:49.843Z,80.90
2023-03-29T21:44:17.930Z,81.30
2023-03-29T21:46:45.392Z,81.70
2023-03-29T21:49:12.806Z,81.60
2023-03-29T21:51:41.662Z,81.40
2023-03-29T21:54:10.620Z,81.10
2023-03-29T21:56:38.702Z,80.90
2023-03-29T21:59:06.355Z,80.70
2023-03-29T22:01:33.717Z,79.90
2023-03-29T22:04:01.626Z,80.00
2023-03-29T22:06:28.871Z,80.10
2023-03-29T22:08:56.548Z,79.70
2023-03-29T22:11:25.729Z,80.00
2023-03-29T22:13:53.174Z,80.60
2023-03-29T22:16:20.979Z,81.70
2023-03-29T22:18:52.692Z,82.10
2023-03-29T22:21:26.590Z,82.00
2023-03-29T22:23:56.678Z,81.70
2023-03-29T22:26:29.854Z,81.70
2023-03-29T22:29:32.665Z,81.70
2023-03-29T22:32:06.033Z,81.70
2023-03-29T22:34:33.840Z,81.60
2023-03-29T22:37:01.548Z,81.30
2023-03-29T22:39:29.969Z,81.00
2023-03-29T22:41:57.605Z,80.80
2023-03-29T22:44:24.820Z,80.40
2023-03-29T22:46:52.414Z,79.90
2023-03-29T22:49:19.843Z,80.30
2023-03-29T22:51:47.236Z,80.90
2023-03-29T22:54:14.520Z,81.10
2023-03-29T22:56:41.986Z,81.00
2023-03-29T22:59:09.297Z,81.10
2023-03-29T23:01:36.925Z,81.90
2023-03-29T23:04:04.743Z,81.70
2023-03-29T23:06:32.170Z,81.40
2023-03-29T23:08:59.859Z,81.30
2023-03-29T23:11:27.140Z,81.20
2023-03-29T23:13:55.279Z,80.90
2023-03-29T23:16:22.842Z,80.80
2023-03-29T23:18:50.301Z,81.00
2023-03-29T23:21:17.881Z,80.70
2023-03-29T23:23:45.109Z,80.70
2023-03-29T23:26:12.608Z,80.60
2023-03-29T23:28:41.196Z,80.40
2023-03-29T23:31:14.320Z,80.60
2023-03-29T23:33:43.047Z,80.60
2023-03-29T23:36:16.294Z,81.20
2023-03-29T23:38:46.374Z,81.20
2023-03-29T23:41:14.098Z,81.20
2023-03-29T23:43:43.363Z,81.10
2023-03-29T23:46:13.550Z,81.00
2023-03-29T23:48:43.834Z,81.00
2023-03-29T23:51:12.009Z,80.90
2023-03-29T23:53:40.311Z,81.20
2023-03-29T23:56:08.310Z,81.20
2023-03-29T23:58:38.328Z,81.40
